• Join FlightAware (Why Join?)
  • Login
  • US Flag 
04:27AM EDT


 

Airport Tracker/Info


-or-


 

Live Flight TrackerFlight Track Log ✈ SRY651 ✈ 26-Apr-2012 ✈ KFRG - KTTN

Flight Track Log - Related Links

Times and Time Zones

All times are in EDT time to prevent confusion due to time zone crossing. See the SRY651 flight status page for this flight to view local times or setup timezone preferences in your user account.

Time Position Orientation Groundspeed Altitude Reporting Facility
EDT Latitude Longitude Course Direction KTS MPH feet Rate Location/Type
09:22PM 40.7000 -73.4167 229° Southwest 165 190 1,200  Level New York TRACON
09:23PM 40.6667 -73.4667 255° West 201 231 2,600 1,020 Climbing New York TRACON
09:24PM 40.6500 -73.5500 303° West 240 276 3,300 1,020 Climbing New York TRACON
09:25PM 40.6833 -73.6167 270° West 218 251 4,700 1,260 Climbing New York TRACON
09:26PM 40.6833 -73.6833 237° Southwest 216 249 5,900 600 Climbing New York TRACON
09:27PM 40.6500 -73.7500 211° Southwest 206 237 5,900 -240 Level New York TRACON
09:35PM 40.1431 -74.1467 285° West 252 290 4,000 -240 Descending FAA TRACON SMA TRACON (SMA)
09:36PM 40.1536 -74.1972 291° West 237 273 4,000  Level FAA TRACON SMA TRACON (SMA)
09:36PM 40.1703 -74.2531 281° West 240 276 4,000  Level FAA TRACON SMA TRACON (SMA)
09:37PM 40.1786 -74.3119 280° West 240 276 4,000  Level FAA TRACON SMA TRACON (SMA)
09:38PM 40.1858 -74.3656 279° West 244 281 4,000  Level FAA TRACON SMA TRACON (SMA)
09:38PM 40.1931 -74.4253 280° West 243 280 4,000  Level FAA TRACON SMA TRACON (SMA)
09:39PM 40.2011 -74.4864 279° West 244 281 4,000  Level FAA TRACON SMA TRACON (SMA)
09:40PM 40.2078 -74.5403 274° West 244 281 4,000 -180 Level FAA TRACON SMA TRACON (SMA)
09:40PM 40.2114 -74.6008 257° West 247 284 3,800 -780 Descending FAA TRACON SMA TRACON (SMA)
09:41PM 40.2014 -74.6592 257° West 241 277 3,000 -720 Descending FAA TRACON SMA TRACON (SMA)
09:42PM 40.1928 -74.7078 258° West 208 239 2,900  Descending FAA TRACON SMA TRACON (SMA)
09:42PM 40.1850 -74.7575 257° West 201 231 3,000  Climbing FAA TRACON SMA TRACON (SMA)
09:43PM 40.1767 -74.8050 237° Southwest 197 227 2,900 -720 Descending FAA TRACON SMA TRACON (SMA)
09:44PM 40.1578 -74.8428 248° West 202 232 2,100 -780 Descending FAA TRACON SMA TRACON (SMA)
09:44PM 40.1444 -74.8864 301° West 168 193 1,900 -120 Descending FAA TRACON SMA TRACON (SMA)
09:45PM 40.1622 -74.9250 335° Northwest 173 199 2,000  Climbing FAA TRACON SMA TRACON (SMA)
09:46PM 40.1900 -74.9419 55° Northeast 202 232 1,900 -120 Descending FAA TRACON SMA TRACON (SMA)
09:46PM 40.2089 -74.9061 48° Northeast 193 222 1,900 -480 Level FAA TRACON SMA TRACON (SMA)
09:47PM 40.2328 -74.8717 46° Northeast 189 217 1,300 -1,020 Descending FAA TRACON SMA TRACON (SMA)
09:48PM 40.2564 -74.8400 47° Northeast 155 178 600 -780 Descending FAA TRACON SMA TRACON (SMA)
09:48PM 40.2669 -74.8250 360° North 136 157 300 -240 Descending FAA TRACON SMA TRACON (SMA)
09:49PM 40.2669 -74.8250 360° North 136 157 300  Level FAA TRACON SMA TRACON (SMA)